BF-0002 weather

Houndé Airport
Houndé, Tui, Burkina Faso

Public forecast

Using degrees Celsius for public forecast. Weather courtesy of forecast.io.

Closest aviation weather report (METAR) to Houndé Airport

Closest report is Bobo Dioulasso Airport, 50.6 nm (93.7 km) WSW. Retrieved 2019/10/19 03:00 UTC (12 minutes ago):

DFOO 190300Z 00000KT CAVOK 24/22 Q1012

Closest aviation forecast (TAF) to Houndé Airport

Closest forecast is Bobo Dioulasso Airport, 50.6 nm (93.7 km) WSW. Retrieved 2019-10-19 00:04 UTC (3 hours ago):

TAF DFOO 182300Z 1900/1924 20008KT 9999 FEW016 TEMPO 1914/1924 4000 TSRA SCT016 FEW033CB